Time;durP1;ratioP1;P1;durP2;ratioP2;P2;SDS_P1;SDS_P2;PMS_P1;PMS_P2;Temp;Humidity;BMP_temperature;BMP_pressure;BME280_temperature;BME280_humidity;BME280_pressure;Samples;Min_cycle;Max_cycle;Signal;HPM_P1;HPM_P2
2021/08/26 00:17:37;;;;;;;12.32;4.12;;;;;;;;;;4441507;28;20112;-67
2021/08/26 00:20:05;;;;;;;7.40;4.10;;;;;;;;;;4234090;33;20085;-66
2021/08/26 00:22:31;;;;;;;6.93;4.28;;;;;;;;;;4197016;34;20114;-66
2021/08/26 00:24:59;;;;;;;7.12;4.15;;;;;;;;;;4208283;34;20108;-66
2021/08/26 00:27:26;;;;;;;8.32;3.70;;;;;;;;;;4207086;34;20090;-67
2021/08/26 00:29:54;;;;;;;10.20;4.87;;;;;;;;;;4219819;34;20201;-67
2021/08/26 00:32:24;;;;;;;7.30;3.95;;;;;;;;;;4219940;33;20129;-68
2021/08/26 00:34:53;;;;;;;7.70;4.50;;;;;;;;;;4219666;34;20097;-69
2021/08/26 00:37:22;;;;;;;5.70;3.72;;;;;;;;;;4207201;34;20543;-67
2021/08/26 00:39:49;;;;;;;6.40;4.20;;;;;;;;;;4219587;34;20212;-67
2021/08/26 00:42:15;;;;;;;10.32;4.30;;;;;;;;;;4219621;34;20117;-67
2021/08/26 00:44:41;;;;;;;12.43;4.35;;;;;;;;;;4219553;34;20235;-67
2021/08/26 00:47:08;;;;;;;7.62;4.68;;;;;;;;;;4219479;34;20112;-67
2021/08/26 00:49:34;;;;;;;7.35;4.78;;;;;;;;;;4219447;34;20547;-67
2021/08/26 00:52:00;;;;;;;10.77;4.12;;;;;;;;;;4219231;34;20113;-67
2021/08/26 00:54:27;;;;;;;14.57;4.50;;;;;;;;;;4219511;34;20102;-67
2021/08/26 00:56:55;;;;;;;5.30;3.58;;;;;;;;;;4219485;34;20455;-67
2021/08/26 00:59:20;;;;;;;9.57;4.07;;;;;;;;;;4219641;34;20089;-67
2021/08/26 01:01:49;;;;;;;10.82;4.57;;;;;;;;;;4206399;34;20121;-67
2021/08/26 01:04:35;;;;;;;7.62;4.45;;;;;;;;;;4195170;34;20534;-67
2021/08/26 01:07:10;;;;;;;7.70;4.25;;;;;;;;;;4206414;34;20616;-67
2021/08/26 01:09:54;;;;;;;6.65;4.28;;;;;;;;;;4195085;34;20533;-67
2021/08/26 01:12:22;;;;;;;11.10;4.30;;;;;;;;;;4218526;34;20553;-67
2021/08/26 01:14:49;;;;;;;13.23;4.72;;;;;;;;;;4219313;34;20220;-67
2021/08/26 01:17:24;;;;;;;8.40;4.65;;;;;;;;;;4221379;33;20140;-67
2021/08/26 01:19:51;;;;;;;5.72;3.67;;;;;;;;;;4233220;33;20116;-67
2021/08/26 01:22:17;;;;;;;6.78;4.15;;;;;;;;;;4233583;33;20438;-67
2021/08/26 01:24:44;;;;;;;7.95;4.20;;;;;;;;;;4209017;33;20129;-65
2021/08/26 01:27:10;;;;;;;8.50;4.55;;;;;;;;;;4220229;33;20532;-65
2021/08/26 01:29:36;;;;;;;6.43;4.07;;;;;;;;;;4208558;33;20125;-66
2021/08/26 01:32:02;;;;;;;8.75;4.47;;;;;;;;;;4208490;33;20203;-65
2021/08/26 01:34:27;;;;;;;12.40;4.53;;;;;;;;;;4220325;33;20156;-65
2021/08/26 01:36:53;;;;;;;7.03;4.70;;;;;;;;;;4233068;33;20207;-65
2021/08/26 01:39:19;;;;;;;6.72;4.00;;;;;;;;;;4220371;33;20222;-65
2021/08/26 01:41:52;;;;;;;8.63;4.53;;;;;;;;;;4233071;33;20128;-65
2021/08/26 01:44:26;;;;;;;8.80;4.62;;;;;;;;;;4233133;33;20118;-65
2021/08/26 01:47:15;;;;;;;10.07;4.53;;;;;;;;;;4220066;33;20124;-65
2021/08/26 01:49:45;;;;;;;8.98;4.78;;;;;;;;;;4227737;33;20107;-65
2021/08/26 01:52:12;;;;;;;8.43;4.50;;;;;;;;;;4226083;33;20519;-65
2021/08/26 01:54:38;;;;;;;6.50;4.25;;;;;;;;;;4219219;34;20192;-65
2021/08/26 01:57:04;;;;;;;7.20;5.15;;;;;;;;;;4205998;34;20544;-65
2021/08/26 01:59:32;;;;;;;8.15;4.50;;;;;;;;;;4219143;34;20127;-65
2021/08/26 02:01:58;;;;;;;6.75;4.82;;;;;;;;;;4205413;34;20189;-65
2021/08/26 02:04:24;;;;;;;8.77;4.75;;;;;;;;;;4218880;34;20113;-65
2021/08/26 02:06:50;;;;;;;7.90;4.93;;;;;;;;;;4218794;34;20132;-65
2021/08/26 02:09:16;;;;;;;9.02;4.72;;;;;;;;;;4218815;34;20133;-65
2021/08/26 02:11:41;;;;;;;9.00;4.45;;;;;;;;;;4218748;34;20556;-65
2021/08/26 02:14:07;;;;;;;9.02;5.12;;;;;;;;;;4218711;34;20121;-65
2021/08/26 02:16:33;;;;;;;8.45;4.60;;;;;;;;;;4218573;34;20222;-66
2021/08/26 02:18:59;;;;;;;14.02;5.28;;;;;;;;;;4224705;33;20097;-67
2021/08/26 02:21:28;;;;;;;8.80;4.22;;;;;;;;;;4232429;33;20192;-67
2021/08/26 02:23:55;;;;;;;7.85;4.78;;;;;;;;;;4219159;33;20109;-66
2021/08/26 02:26:21;;;;;;;10.63;4.65;;;;;;;;;;4219678;33;20112;-66
2021/08/26 02:28:47;;;;;;;8.23;4.57;;;;;;;;;;4232540;33;20628;-65
2021/08/26 02:31:13;;;;;;;8.68;4.80;;;;;;;;;;4232449;33;20124;-63
2021/08/26 02:33:39;;;;;;;10.45;4.40;;;;;;;;;;4232483;33;20235;-66
2021/08/26 02:36:05;;;;;;;9.02;4.18;;;;;;;;;;4232335;33;20128;-66
2021/08/26 02:38:31;;;;;;;10.65;4.70;;;;;;;;;;4232456;33;20509;-67
2021/08/26 02:40:57;;;;;;;10.00;4.35;;;;;;;;;;4232447;33;20120;-67
2021/08/26 02:43:23;;;;;;;11.07;4.32;;;;;;;;;;4232677;33;20137;-66
2021/08/26 02:45:49;;;;;;;7.70;5.18;;;;;;;;;;4232350;33;20144;-67
2021/08/26 02:48:15;;;;;;;9.05;4.85;;;;;;;;;;4232397;33;20284;-67
2021/08/26 02:50:41;;;;;;;7.75;4.85;;;;;;;;;;4219352;33;20109;-66
2021/08/26 02:53:08;;;;;;;8.00;4.80;;;;;;;;;;4232521;33;20100;-65
2021/08/26 02:55:34;;;;;;;6.93;3.70;;;;;;;;;;4232378;33;20224;-64
2021/08/26 02:58:00;;;;;;;6.90;4.10;;;;;;;;;;4232302;33;20140;-64
2021/08/26 03:00:26;;;;;;;10.73;5.07;;;;;;;;;;4232468;33;20128;-64
2021/08/26 03:02:52;;;;;;;8.80;4.72;;;;;;;;;;4232119;33;20216;-63
2021/08/26 03:05:18;;;;;;;8.93;4.15;;;;;;;;;;4232174;33;20109;-63
2021/08/26 03:07:43;;;;;;;9.48;4.82;;;;;;;;;;4232402;33;20448;-64
2021/08/26 03:10:10;;;;;;;14.02;4.50;;;;;;;;;;4219157;33;20100;-64
2021/08/26 03:12:36;;;;;;;11.20;4.78;;;;;;;;;;4232156;33;20116;-64
2021/08/26 03:15:02;;;;;;;7.45;4.93;;;;;;;;;;4231565;33;20540;-64
2021/08/26 03:17:27;;;;;;;8.88;4.50;;;;;;;;;;4232029;33;20220;-63
2021/08/26 03:19:53;;;;;;;9.88;5.07;;;;;;;;;;4231941;33;20528;-64
2021/08/26 03:22:19;;;;;;;11.88;4.12;;;;;;;;;;4231923;33;20563;-63
2021/08/26 03:24:45;;;;;;;15.38;4.57;;;;;;;;;;4232092;33;20496;-63
2021/08/26 03:27:11;;;;;;;7.72;4.35;;;;;;;;;;4231995;33;20125;-63
2021/08/26 03:29:37;;;;;;;10.27;5.05;;;;;;;;;;4231886;33;20129;-63
2021/08/26 03:32:03;;;;;;;9.18;4.60;;;;;;;;;;4231708;33;20465;-63
2021/08/26 03:34:29;;;;;;;6.87;4.25;;;;;;;;;;4232194;33;20135;-64
2021/08/26 03:36:55;;;;;;;7.53;4.68;;;;;;;;;;4234112;33;20593;-63
2021/08/26 03:39:21;;;;;;;9.75;4.05;;;;;;;;;;4234141;33;20132;-64
2021/08/26 03:41:47;;;;;;;8.52;4.32;;;;;;;;;;4234109;33;20560;-63
2021/08/26 03:44:13;;;;;;;7.70;4.62;;;;;;;;;;4234042;33;20128;-63
2021/08/26 03:46:38;;;;;;;7.90;4.43;;;;;;;;;;4221074;33;20569;-63
2021/08/26 03:49:04;;;;;;;10.23;4.15;;;;;;;;;;4233968;33;20130;-64
2021/08/26 03:51:30;;;;;;;8.55;4.57;;;;;;;;;;4233881;33;20192;-63
2021/08/26 03:53:56;;;;;;;9.30;4.60;;;;;;;;;;4234230;33;20124;-63
2021/08/26 03:56:22;;;;;;;10.32;4.40;;;;;;;;;;4220779;33;20114;-63
2021/08/26 03:58:48;;;;;;;15.52;4.15;;;;;;;;;;4233944;33;20128;-64
2021/08/26 04:01:14;;;;;;;7.80;3.67;;;;;;;;;;4233821;33;20121;-63
2021/08/26 04:03:40;;;;;;;8.13;4.45;;;;;;;;;;4220856;33;20535;-65
2021/08/26 04:06:05;;;;;;;7.12;4.05;;;;;;;;;;4220747;33;20537;-63
2021/08/26 04:08:31;;;;;;;11.00;5.22;;;;;;;;;;4233845;33;20124;-64
2021/08/26 04:10:57;;;;;;;14.15;4.18;;;;;;;;;;4233728;33;20090;-63
2021/08/26 04:13:23;;;;;;;9.38;4.03;;;;;;;;;;4232450;33;20113;-63
2021/08/26 04:15:49;;;;;;;9.48;4.35;;;;;;;;;;4220889;33;20113;-63
2021/08/26 04:18:15;;;;;;;8.55;4.47;;;;;;;;;;4233816;33;20124;-63
2021/08/26 04:20:42;;;;;;;8.32;4.35;;;;;;;;;;4233649;33;20117;-64
2021/08/26 04:23:07;;;;;;;8.48;4.20;;;;;;;;;;4233654;33;20101;-64
2021/08/26 04:25:33;;;;;;;6.47;3.83;;;;;;;;;;4233461;33;20224;-64
2021/08/26 04:27:59;;;;;;;8.02;3.75;;;;;;;;;;4233398;33;20513;-65
2021/08/26 04:30:25;;;;;;;6.22;3.58;;;;;;;;;;4233842;33;20132;-63
2021/08/26 04:32:51;;;;;;;7.03;3.65;;;;;;;;;;4233519;33;20533;-62
2021/08/26 04:35:17;;;;;;;8.20;3.58;;;;;;;;;;4233818;33;20161;-63
2021/08/26 04:37:43;;;;;;;6.68;3.40;;;;;;;;;;4233535;33;20460;-64
2021/08/26 04:40:09;;;;;;;10.52;2.90;;;;;;;;;;4233659;33;20120;-64
2021/08/26 04:42:35;;;;;;;7.37;3.47;;;;;;;;;;4233730;33;20180;-64
2021/08/26 04:45:01;;;;;;;6.90;4.05;;;;;;;;;;4233742;33;20156;-64
2021/08/26 04:47:27;;;;;;;5.93;3.78;;;;;;;;;;4233355;33;20555;-63
2021/08/26 04:49:53;;;;;;;7.22;3.70;;;;;;;;;;4220356;33;20189;-63
2021/08/26 04:52:19;;;;;;;8.25;3.97;;;;;;;;;;4233624;33;20135;-64
2021/08/26 04:54:45;;;;;;;5.50;3.25;;;;;;;;;;4220416;33;20529;-66
2021/08/26 04:57:11;;;;;;;5.45;3.33;;;;;;;;;;4233380;33;20101;-63
2021/08/26 04:59:36;;;;;;;5.68;3.25;;;;;;;;;;4233495;33;20151;-65
2021/08/26 05:02:02;;;;;;;5.35;2.90;;;;;;;;;;4233341;33;20106;-65
2021/08/26 05:04:29;;;;;;;4.72;3.28;;;;;;;;;;4233534;33;20497;-65
2021/08/26 05:06:54;;;;;;;6.90;3.70;;;;;;;;;;4233253;33;20105;-63
2021/08/26 05:09:20;;;;;;;6.55;3.62;;;;;;;;;;4233388;33;20188;-65
2021/08/26 05:11:46;;;;;;;6.18;3.58;;;;;;;;;;4233042;33;20125;-63
2021/08/26 05:14:12;;;;;;;3.97;2.87;;;;;;;;;;4233224;33;20125;-64
2021/08/26 05:16:38;;;;;;;7.90;2.92;;;;;;;;;;4233173;33;20128;-64
2021/08/26 05:19:04;;;;;;;5.72;2.83;;;;;;;;;;4233438;33;20226;-66
2021/08/26 05:21:30;;;;;;;6.80;3.08;;;;;;;;;;4233261;33;20442;-66
2021/08/26 05:23:56;;;;;;;4.85;3.12;;;;;;;;;;4233188;33;20121;-64
2021/08/26 05:26:22;;;;;;;6.03;2.97;;;;;;;;;;4233099;33;20100;-65
2021/08/26 05:28:48;;;;;;;7.20;3.22;;;;;;;;;;4233185;33;20528;-64
2021/08/26 05:31:15;;;;;;;4.95;3.10;;;;;;;;;;4233103;33;20133;-64
2021/08/26 05:33:41;;;;;;;6.82;3.03;;;;;;;;;;4233170;33;20121;-65
2021/08/26 05:36:07;;;;;;;6.43;3.22;;;;;;;;;;4233362;33;20184;-64
2021/08/26 05:38:33;;;;;;;4.93;3.55;;;;;;;;;;4233254;33;20198;-65
2021/08/26 05:40:59;;;;;;;7.43;2.85;;;;;;;;;;4232950;33;20108;-63
2021/08/26 05:43:24;;;;;;;7.07;4.12;;;;;;;;;;4233003;33;20540;-65
2021/08/26 05:45:51;;;;;;;7.43;3.30;;;;;;;;;;4233165;33;20183;-66
2021/08/26 05:48:16;;;;;;;5.12;3.25;;;;;;;;;;4233016;33;20544;-66
2021/08/26 05:50:42;;;;;;;6.25;3.80;;;;;;;;;;4232874;33;20121;-67
2021/08/26 05:53:08;;;;;;;4.62;3.30;;;;;;;;;;4232927;33;20402;-64
2021/08/26 05:55:34;;;;;;;5.55;3.53;;;;;;;;;;4232903;33;20104;-65
2021/08/26 05:58:00;;;;;;;7.45;3.00;;;;;;;;;;4219143;33;20105;-66
2021/08/26 06:00:26;;;;;;;4.80;2.85;;;;;;;;;;4233009;33;20137;-64
2021/08/26 06:02:52;;;;;;;9.05;3.78;;;;;;;;;;4232745;33;20231;-64
2021/08/26 06:05:18;;;;;;;8.15;3.28;;;;;;;;;;4232775;33;20132;-65
2021/08/26 06:07:44;;;;;;;5.60;3.85;;;;;;;;;;4232828;33;20200;-69
2021/08/26 06:10:10;;;;;;;13.52;3.58;;;;;;;;;;4232800;33;20124;-64
2021/08/26 06:12:40;;;;;;;5.80;3.10;;;;;;;;;;4232696;33;20219;-63
2021/08/26 06:15:08;;;;;;;4.78;3.12;;;;;;;;;;4232641;33;20115;-64
2021/08/26 06:17:33;;;;;;;5.80;3.37;;;;;;;;;;4219662;33;20141;-64
2021/08/26 06:19:59;;;;;;;4.68;3.20;;;;;;;;;;4232520;33;20105;-63
2021/08/26 06:22:25;;;;;;;8.65;3.75;;;;;;;;;;4232477;33;20124;-63
2021/08/26 06:24:51;;;;;;;7.57;3.50;;;;;;;;;;4219835;33;20151;-65
2021/08/26 06:27:17;;;;;;;7.00;3.80;;;;;;;;;;4232709;33;20208;-63
2021/08/26 06:29:43;;;;;;;6.82;3.80;;;;;;;;;;4232812;33;20216;-65
2021/08/26 06:32:09;;;;;;;5.45;3.72;;;;;;;;;;4232550;33;20136;-66
2021/08/26 06:34:35;;;;;;;5.35;3.47;;;;;;;;;;4232358;33;20544;-66
2021/08/26 06:37:01;;;;;;;7.05;3.20;;;;;;;;;;4232703;33;20193;-64
2021/08/26 06:39:27;;;;;;;5.60;3.25;;;;;;;;;;4232516;33;20102;-65
2021/08/26 06:41:53;;;;;;;6.80;2.75;;;;;;;;;;4232493;33;20150;-64
2021/08/26 06:44:19;;;;;;;4.87;3.37;;;;;;;;;;4232758;33;20132;-64
2021/08/26 06:46:45;;;;;;;7.50;2.95;;;;;;;;;;4232566;33;20177;-70
2021/08/26 06:49:10;;;;;;;6.57;3.17;;;;;;;;;;4232479;33;20133;-72
2021/08/26 06:51:36;;;;;;;6.57;2.90;;;;;;;;;;4232645;33;20132;-73
2021/08/26 06:54:02;;;;;;;5.10;3.30;;;;;;;;;;4232577;33;20132;-74
2021/08/26 06:56:28;;;;;;;8.25;3.25;;;;;;;;;;4232307;33;20216;-72
2021/08/26 06:58:54;;;;;;;7.43;2.80;;;;;;;;;;4232517;33;20131;-71
2021/08/26 07:01:20;;;;;;;6.35;3.17;;;;;;;;;;4232201;33;20090;-71
2021/08/26 07:03:46;;;;;;;7.43;3.05;;;;;;;;;;4232176;33;20207;-69
2021/08/26 07:06:14;;;;;;;7.03;3.28;;;;;;;;;;4232427;33;20094;-72
2021/08/26 07:08:40;;;;;;;9.95;3.37;;;;;;;;;;4232854;33;20106;-70
2021/08/26 07:11:06;;;;;;;5.90;3.25;;;;;;;;;;4234223;33;20125;-70
2021/08/26 07:13:32;;;;;;;6.90;2.97;;;;;;;;;;4234231;33;20239;-69
2021/08/26 07:15:57;;;;;;;6.97;3.05;;;;;;;;;;4234133;33;20220;-69
2021/08/26 07:18:24;;;;;;;9.70;3.83;;;;;;;;;;4234264;33;20116;-71
2021/08/26 07:20:50;;;;;;;7.47;3.10;;;;;;;;;;4221515;33;20127;-71
2021/08/26 07:23:16;;;;;;;5.78;3.40;;;;;;;;;;4234303;33;20199;-71
2021/08/26 07:25:42;;;;;;;3.85;2.67;;;;;;;;;;4234202;33;20219;-71
2021/08/26 07:28:09;;;;;;;9.13;3.60;;;;;;;;;;4234081;33;20552;-71
2021/08/26 07:30:35;;;;;;;3.62;2.87;;;;;;;;;;4233988;33;20220;-69
2021/08/26 07:33:01;;;;;;;5.85;3.45;;;;;;;;;;4234171;33;20116;-71
2021/08/26 07:35:27;;;;;;;6.22;2.78;;;;;;;;;;4234428;33;20143;-71
2021/08/26 07:37:53;;;;;;;6.15;3.25;;;;;;;;;;4234075;33;20244;-71
2021/08/26 07:40:19;;;;;;;4.72;2.35;;;;;;;;;;4234287;33;20125;-71
2021/08/26 07:42:45;;;;;;;6.35;3.35;;;;;;;;;;4234310;33;20519;-72
2021/08/26 07:45:11;;;;;;;9.55;3.70;;;;;;;;;;4234064;33;20117;-71
2021/08/26 07:47:36;;;;;;;5.90;3.42;;;;;;;;;;4234083;33;20108;-73
2021/08/26 07:50:04;;;;;;;7.80;3.15;;;;;;;;;;4233929;33;20129;-69
2021/08/26 07:52:31;;;;;;;6.47;3.80;;;;;;;;;;4234097;33;20113;-69
2021/08/26 07:54:57;;;;;;;7.03;3.20;;;;;;;;;;4234010;33;20148;-69
2021/08/26 07:57:23;;;;;;;5.78;3.45;;;;;;;;;;4234106;33;20209;-69
2021/08/26 07:59:49;;;;;;;12.70;3.10;;;;;;;;;;4233992;33;20528;-69
2021/08/26 08:02:14;;;;;;;4.12;2.50;;;;;;;;;;4233994;33;20144;-70
2021/08/26 08:04:40;;;;;;;6.57;2.70;;;;;;;;;;4233850;33;20116;-70
2021/08/26 08:07:06;;;;;;;4.43;2.72;;;;;;;;;;4234300;33;20109;-69
2021/08/26 08:09:33;;;;;;;5.53;3.50;;;;;;;;;;4233929;33;20208;-69
2021/08/26 08:12:00;;;;;;;8.05;3.80;;;;;;;;;;4233778;33;20117;-71
2021/08/26 08:14:28;;;;;;;5.47;3.33;;;;;;;;;;4233784;33;20108;-70
2021/08/26 08:16:55;;;;;;;7.40;3.53;;;;;;;;;;4233550;33;20102;-71
2021/08/26 08:19:22;;;;;;;8.90;2.95;;;;;;;;;;4233707;33;20109;-73
2021/08/26 08:21:48;;;;;;;6.80;2.75;;;;;;;;;;4233308;33;20124;-74
2021/08/26 08:24:14;;;;;;;2.05;1.55;;;;;;;;;;4233738;33;20129;-69
2021/08/26 08:26:40;;;;;;;6.03;3.42;;;;;;;;;;4233981;33;20191;-70
2021/08/26 08:29:06;;;;;;;9.05;3.25;;;;;;;;;;4233657;33;20148;-68
2021/08/26 08:31:32;;;;;;;4.87;3.55;;;;;;;;;;4233582;33;20538;-69
2021/08/26 08:34:00;;;;;;;3.62;2.75;;;;;;;;;;4233617;33;20133;-70
2021/08/26 08:36:26;;;;;;;3.08;1.98;;;;;;;;;;4233630;33;20520;-70
2021/08/26 08:38:52;;;;;;;6.78;3.15;;;;;;;;;;4233645;33;20097;-69
2021/08/26 08:41:19;;;;;;;5.78;3.87;;;;;;;;;;4233525;33;20112;-69
2021/08/26 08:43:46;;;;;;;7.93;3.50;;;;;;;;;;4233731;33;20113;-70
2021/08/26 08:46:12;;;;;;;6.87;2.87;;;;;;;;;;4233848;33;20124;-69
2021/08/26 08:48:40;;;;;;;5.12;2.97;;;;;;;;;;4233572;33;20203;-69
2021/08/26 08:51:05;;;;;;;10.18;3.92;;;;;;;;;;4233335;33;20136;-68
2021/08/26 08:53:32;;;;;;;4.60;2.70;;;;;;;;;;4209018;33;20541;-70
2021/08/26 08:55:58;;;;;;;6.30;2.70;;;;;;;;;;4233632;33;20101;-70
2021/08/26 08:58:24;;;;;;;6.28;3.75;;;;;;;;;;4233674;33;20224;-69
2021/08/26 09:00:50;;;;;;;8.88;3.50;;;;;;;;;;4233364;33;20129;-69
2021/08/26 09:03:16;;;;;;;6.00;3.40;;;;;;;;;;4233424;33;20132;-68
2021/08/26 09:05:55;;;;;;;10.50;3.60;;;;;;;;;;4233671;33;20117;-69
2021/08/26 09:08:23;;;;;;;4.80;3.90;;;;;;;;;;4233345;33;20173;-68
2021/08/26 09:10:53;;;;;;;7.28;3.58;;;;;;;;;;4233360;33;20215;-70
2021/08/26 09:13:32;;;;;;;7.78;3.55;;;;;;;;;;4233195;33;20353;-70
2021/08/26 09:15:58;;;;;;;7.43;3.25;;;;;;;;;;4219919;33;20116;-70
2021/08/26 09:18:24;;;;;;;6.60;3.72;;;;;;;;;;4233413;33;20474;-71
2021/08/26 09:20:55;;;;;;;7.87;3.83;;;;;;;;;;4220411;33;20448;-70
2021/08/26 09:23:26;;;;;;;5.78;3.20;;;;;;;;;;4233438;33;20121;-69
2021/08/26 09:25:52;;;;;;;5.55;3.12;;;;;;;;;;4233036;33;20131;-69
2021/08/26 09:28:30;;;;;;;6.85;3.35;;;;;;;;;;4220333;33;20124;-70
2021/08/26 09:31:15;;;;;;;10.32;3.08;;;;;;;;;;4233162;33;20132;-71
2021/08/26 09:34:06;;;;;;;9.25;3.58;;;;;;;;;;4232380;33;20422;-69
2021/08/26 09:36:50;;;;;;;6.65;4.18;;;;;;;;;;4232913;33;20108;-67
2021/08/26 09:39:18;;;;;;;5.40;2.50;;;;;;;;;;4233106;33;20113;-67
2021/08/26 09:41:54;;;;;;;6.12;3.40;;;;;;;;;;4232921;33;20116;-70
2021/08/26 09:44:28;;;;;;;5.40;3.12;;;;;;;;;;4233082;33;20512;-69
2021/08/26 09:46:56;;;;;;;8.40;4.55;;;;;;;;;;4233184;33;20117;-69
2021/08/26 09:49:24;;;;;;;9.80;3.15;;;;;;;;;;4232940;33;20176;-67
2021/08/26 09:52:10;;;;;;;8.65;3.35;;;;;;;;;;4233052;33;20544;-68
2021/08/26 09:54:43;;;;;;;8.02;3.97;;;;;;;;;;4233006;33;20097;-67
2021/08/26 09:57:36;;;;;;;5.40;3.60;;;;;;;;;;4232748;33;20556;-66
2021/08/26 10:00:03;;;;;;;6.03;3.50;;;;;;;;;;4233204;33;20475;-66
2021/08/26 10:02:30;;;;;;;5.90;3.42;;;;;;;;;;4233233;33;20257;-69
2021/08/26 10:04:56;;;;;;;8.70;3.30;;;;;;;;;;4219824;33;20124;-67
2021/08/26 10:07:24;;;;;;;5.40;3.47;;;;;;;;;;4232703;33;20540;-67
2021/08/26 10:09:50;;;;;;;6.90;3.72;;;;;;;;;;4232786;33;20105;-67
2021/08/26 10:12:16;;;;;;;5.32;3.10;;;;;;;;;;4219569;33;20296;-67
2021/08/26 10:14:46;;;;;;;6.22;3.62;;;;;;;;;;4232713;33;20129;-67
2021/08/26 10:17:13;;;;;;;6.82;3.50;;;;;;;;;;4232636;33;20094;-67
2021/08/26 10:19:40;;;;;;;5.75;3.22;;;;;;;;;;4232965;33;20161;-67
2021/08/26 10:22:06;;;;;;;7.75;3.90;;;;;;;;;;4232548;33;20121;-67
2021/08/26 10:24:32;;;;;;;7.10;3.83;;;;;;;;;;4232604;33;20154;-68
2021/08/26 10:27:10;;;;;;;7.15;3.47;;;;;;;;;;4208113;33;20106;-68
2021/08/26 10:29:38;;;;;;;5.22;2.92;;;;;;;;;;4220706;33;20109;-70
2021/08/26 10:32:05;;;;;;;6.40;3.33;;;;;;;;;;4208373;33;20212;-68
2021/08/26 10:34:32;;;;;;;6.60;3.25;;;;;;;;;;4232641;33;20113;-69
2021/08/26 10:36:58;;;;;;;9.65;4.03;;;;;;;;;;4232556;33;20204;-69
2021/08/26 10:39:41;;;;;;;5.97;3.60;;;;;;;;;;4232529;33;20198;-69
2021/08/26 10:42:16;;;;;;;5.68;3.12;;;;;;;;;;4232488;33;20108;-68
2021/08/26 10:45:06;;;;;;;8.45;3.97;;;;;;;;;;4233907;33;20501;-70
2021/08/26 10:47:52;;;;;;;7.40;3.37;;;;;;;;;;4234717;33;20116;-67
2021/08/26 10:50:22;;;;;;;11.35;4.60;;;;;;;;;;4234336;33;20506;-67
2021/08/26 10:52:57;;;;;;;14.73;4.30;;;;;;;;;;4234526;33;20101;-67
2021/08/26 10:55:31;;;;;;;6.12;3.80;;;;;;;;;;4234349;33;20121;-68
2021/08/26 10:58:22;;;;;;;8.10;3.40;;;;;;;;;;4234426;33;20112;-67
2021/08/26 11:00:53;;;;;;;6.25;2.87;;;;;;;;;;4234409;33;20101;-67
2021/08/26 11:03:46;;;;;;;3.55;2.67;;;;;;;;;;4234512;33;20109;-67
2021/08/26 11:06:21;;;;;;;9.57;4.47;;;;;;;;;;4234568;33;20117;-67
2021/08/26 11:09:06;;;;;;;7.30;3.85;;;;;;;;;;4234627;33;20427;-67
2021/08/26 11:11:37;;;;;;;12.23;4.77;;;;;;;;;;4234295;33;20116;-67
2021/08/26 11:14:03;;;;;;;9.25;3.60;;;;;;;;;;4234337;33;20116;-68
2021/08/26 11:16:29;;;;;;;11.18;5.05;;;;;;;;;;4234454;33;20105;-67
2021/08/26 11:19:04;;;;;;;8.30;4.30;;;;;;;;;;4234242;33;20137;-68
2021/08/26 11:21:44;;;;;;;8.77;3.90;;;;;;;;;;4234385;33;20140;-69
2021/08/26 11:24:16;;;;;;;6.37;4.20;;;;;;;;;;4234640;33;20525;-67
2021/08/26 11:26:51;;;;;;;8.27;4.32;;;;;;;;;;4234272;33;20091;-67
2021/08/26 11:29:28;;;;;;;9.05;4.03;;;;;;;;;;4234218;33;20556;-68
2021/08/26 11:32:05;;;;;;;7.55;4.18;;;;;;;;;;4234251;33;20116;-67
2021/08/26 11:34:31;;;;;;;11.05;3.58;;;;;;;;;;4234168;33;20117;-66
2021/08/26 11:37:17;;;;;;;10.20;4.78;;;;;;;;;;4234059;33;20843;-67
2021/08/26 11:39:55;;;;;;;6.78;3.95;;;;;;;;;;4221240;33;20456;-67
2021/08/26 11:42:27;;;;;;;7.68;3.92;;;;;;;;;;4234350;33;20094;-67
2021/08/26 11:45:13;;;;;;;6.47;3.28;;;;;;;;;;4234066;33;20211;-67
2021/08/26 11:48:03;;;;;;;7.60;4.10;;;;;;;;;;4234040;33;20105;-68
2021/08/26 11:50:33;;;;;;;11.57;4.57;;;;;;;;;;4234219;33;20536;-67
2021/08/26 11:53:04;;;;;;;9.85;4.68;;;;;;;;;;4233932;33;20101;-68
2021/08/26 11:55:34;;;;;;;6.85;3.55;;;;;;;;;;4233338;33;20160;-67
2021/08/26 11:58:02;;;;;;;9.40;4.22;;;;;;;;;;4233861;33;20429;-68
2021/08/26 12:00:28;;;;;;;6.45;4.05;;;;;;;;;;4233921;33;20199;-67
2021/08/26 12:02:55;;;;;;;11.98;3.65;;;;;;;;;;4220802;33;20101;-67
2021/08/26 12:05:21;;;;;;;7.25;4.25;;;;;;;;;;4233876;33;20113;-66
2021/08/26 12:07:48;;;;;;;9.13;4.50;;;;;;;;;;4233831;33;20125;-67
2021/08/26 12:10:24;;;;;;;8.80;4.37;;;;;;;;;;4233646;33;20467;-67
2021/08/26 12:12:59;;;;;;;5.40;3.58;;;;;;;;;;4233769;33;20105;-67
2021/08/26 12:15:47;;;;;;;6.97;4.57;;;;;;;;;;4234058;33;20227;-67
2021/08/26 12:18:26;;;;;;;10.05;4.15;;;;;;;;;;4220528;33;20520;-67
2021/08/26 12:20:57;;;;;;;6.95;4.37;;;;;;;;;;4220689;33;20133;-67
2021/08/26 12:23:25;;;;;;;8.50;4.82;;;;;;;;;;4221118;33;20136;-68
2021/08/26 12:26:09;;;;;;;7.00;3.22;;;;;;;;;;4220901;33;20188;-67
2021/08/26 12:28:36;;;;;;;8.90;4.60;;;;;;;;;;4233782;33;20488;-67
2021/08/26 12:31:09;;;;;;;11.50;4.68;;;;;;;;;;4233647;33;20100;-67
2021/08/26 12:33:37;;;;;;;10.55;3.72;;;;;;;;;;4233619;33;20469;-69
2021/08/26 12:36:03;;;;;;;10.57;4.57;;;;;;;;;;4233550;33;20215;-67
2021/08/26 12:38:35;;;;;;;9.98;4.68;;;;;;;;;;4233654;33;20133;-68
2021/08/26 12:41:08;;;;;;;7.30;3.97;;;;;;;;;;4233669;33;20105;-66
2021/08/26 12:43:47;;;;;;;14.18;4.40;;;;;;;;;;4233896;33;20108;-66
2021/08/26 12:46:19;;;;;;;10.10;5.15;;;;;;;;;;4220531;33;20100;-66
2021/08/26 12:48:45;;;;;;;7.80;4.40;;;;;;;;;;4233530;33;20093;-66
2021/08/26 12:51:18;;;;;;;10.07;4.35;;;;;;;;;;4233652;33;20196;-67
2021/08/26 12:54:06;;;;;;;7.90;4.20;;;;;;;;;;4233402;33;20124;-68
2021/08/26 12:56:52;;;;;;;8.85;4.20;;;;;;;;;;4223979;33;20192;-68
2021/08/26 12:59:18;;;;;;;7.07;4.05;;;;;;;;;;4233417;33;20199;-67
2021/08/26 13:01:48;;;;;;;7.57;4.22;;;;;;;;;;4233321;33;20109;-67
2021/08/26 13:04:23;;;;;;;6.03;3.65;;;;;;;;;;4233397;33;20423;-67
2021/08/26 13:06:51;;;;;;;6.50;3.65;;;;;;;;;;4232988;33;20285;-67
2021/08/26 13:09:36;;;;;;;7.87;4.40;;;;;;;;;;4233457;33;20108;-67
2021/08/26 13:12:03;;;;;;;10.75;3.55;;;;;;;;;;4233326;33;20102;-67
2021/08/26 13:14:40;;;;;;;7.87;4.40;;;;;;;;;;4233247;33;20116;-67
2021/08/26 13:17:12;;;;;;;6.40;3.78;;;;;;;;;;4233099;33;20485;-67
2021/08/26 13:19:45;;;;;;;9.77;4.47;;;;;;;;;;4233211;33;20544;-67
2021/08/26 13:22:17;;;;;;;6.80;3.58;;;;;;;;;;4233145;33;20124;-67
2021/08/26 13:24:43;;;;;;;5.82;3.70;;;;;;;;;;4233153;33;20121;-67
2021/08/26 13:27:09;;;;;;;8.23;4.18;;;;;;;;;;4220104;33;20148;-68
2021/08/26 13:29:35;;;;;;;6.43;3.55;;;;;;;;;;4233159;33;20143;-68
2021/08/26 13:32:01;;;;;;;6.72;3.80;;;;;;;;;;4233029;33;20121;-68
2021/08/26 13:34:27;;;;;;;9.23;4.37;;;;;;;;;;4233130;33;20149;-68
2021/08/26 13:36:53;;;;;;;13.68;4.30;;;;;;;;;;4233172;33;20171;-68
2021/08/26 13:39:19;;;;;;;8.90;4.03;;;;;;;;;;4233058;33;20261;-68
2021/08/26 13:41:46;;;;;;;11.23;4.35;;;;;;;;;;4233104;33;20128;-68
2021/08/26 13:44:12;;;;;;;6.35;3.70;;;;;;;;;;4233025;33;20439;-68
2021/08/26 13:46:39;;;;;;;9.40;3.90;;;;;;;;;;4233049;33;20124;-68
2021/08/26 13:49:05;;;;;;;7.62;3.85;;;;;;;;;;4233004;33;20109;-68
2021/08/26 13:51:31;;;;;;;6.22;4.18;;;;;;;;;;4233261;33;20551;-67
2021/08/26 13:53:57;;;;;;;5.22;3.60;;;;;;;;;;4233012;33;20101;-67
2021/08/26 13:56:23;;;;;;;8.95;3.33;;;;;;;;;;4232757;33;20497;-68
2021/08/26 13:58:49;;;;;;;6.05;3.10;;;;;;;;;;4232833;33;20552;-67
2021/08/26 14:01:15;;;;;;;7.03;3.53;;;;;;;;;;4233029;33;20096;-67
2021/08/26 14:03:41;;;;;;;9.45;3.80;;;;;;;;;;4215931;33;20133;-67
2021/08/26 14:06:10;;;;;;;6.60;4.55;;;;;;;;;;4216606;34;20124;-67
2021/08/26 14:08:36;;;;;;;7.72;4.10;;;;;;;;;;4219310;34;20219;-67
2021/08/26 14:11:02;;;;;;;7.85;3.62;;;;;;;;;;4218848;34;20531;-67
2021/08/26 14:13:29;;;;;;;8.30;3.95;;;;;;;;;;4203251;34;20129;-68
2021/08/26 14:15:55;;;;;;;8.65;3.12;;;;;;;;;;4218498;34;20215;-67
2021/08/26 14:18:21;;;;;;;7.43;3.47;;;;;;;;;;4218423;33;20232;-67
2021/08/26 14:20:47;;;;;;;6.30;4.15;;;;;;;;;;4218495;34;20200;-68
2021/08/26 14:23:13;;;;;;;4.97;2.97;;;;;;;;;;4218437;33;20121;-68
2021/08/26 14:25:39;;;;;;;5.95;3.08;;;;;;;;;;4218589;34;20228;-68
2021/08/26 14:28:05;;;;;;;8.05;3.15;;;;;;;;;;4205101;34;20131;-68
2021/08/26 14:30:31;;;;;;;5.70;3.17;;;;;;;;;;4218503;34;20113;-68
2021/08/26 14:32:57;;;;;;;7.82;3.17;;;;;;;;;;4218262;33;20317;-67
2021/08/26 14:35:23;;;;;;;5.37;3.30;;;;;;;;;;4218526;34;20133;-68
2021/08/26 14:37:50;;;;;;;8.55;4.85;;;;;;;;;;4218361;33;20544;-67
2021/08/26 14:40:16;;;;;;;4.97;3.42;;;;;;;;;;4217744;33;20163;-67
2021/08/26 14:42:42;;;;;;;7.70;3.55;;;;;;;;;;4209267;33;20085;-67
2021/08/26 14:45:08;;;;;;;6.80;3.80;;;;;;;;;;4217475;33;20141;-67
2021/08/26 14:47:34;;;;;;;9.77;3.55;;;;;;;;;;4218377;33;20509;-67
2021/08/26 14:50:00;;;;;;;6.65;3.60;;;;;;;;;;4217833;33;20205;-67
2021/08/26 14:52:26;;;;;;;4.72;2.92;;;;;;;;;;4204951;34;20453;-67
2021/08/26 14:54:52;;;;;;;7.55;3.80;;;;;;;;;;4218323;33;20098;-66
2021/08/26 14:57:18;;;;;;;8.77;5.10;;;;;;;;;;4218180;33;20105;-66
2021/08/26 14:59:46;;;;;;;5.85;3.80;;;;;;;;;;4218135;33;20240;-67
2021/08/26 15:02:15;;;;;;;8.13;4.25;;;;;;;;;;4205084;34;20522;-66
2021/08/26 15:04:41;;;;;;;13.85;4.20;;;;;;;;;;4217713;33;20669;-65